sensor_id;sensor_type;location;lat;lon;timestamp;temperature;humidity
40622;DHT22;26324;52.040;11.528;2023-04-21T00:01:43;8.00;88.50
40622;DHT22;26324;52.040;11.528;2023-04-21T00:04:10;8.00;88.50
40622;DHT22;26324;52.040;11.528;2023-04-21T00:06:41;8.00;88.60
40622;DHT22;26324;52.040;11.528;2023-04-21T00:09:10;8.00;88.60
40622;DHT22;26324;52.040;11.528;2023-04-21T00:11:38;8.00;88.50
40622;DHT22;26324;52.040;11.528;2023-04-21T00:14:05;7.90;88.40
40622;DHT22;26324;52.040;11.528;2023-04-21T00:16:32;7.90;88.60
40622;DHT22;26324;52.040;11.528;2023-04-21T00:19:00;7.80;88.90
40622;DHT22;26324;52.040;11.528;2023-04-21T00:21:28;7.90;89.00
40622;DHT22;26324;52.040;11.528;2023-04-21T00:23:55;7.80;89.00
40622;DHT22;26324;52.040;11.528;2023-04-21T00:26:22;7.80;89.10
40622;DHT22;26324;52.040;11.528;2023-04-21T00:28:51;7.80;89.10
40622;DHT22;26324;52.040;11.528;2023-04-21T00:31:18;7.80;89.20
40622;DHT22;26324;52.040;11.528;2023-04-21T00:33:45;7.80;89.20
40622;DHT22;26324;52.040;11.528;2023-04-21T00:36:14;7.80;89.10
40622;DHT22;26324;52.040;11.528;2023-04-21T00:38:41;7.80;89.40
40622;DHT22;26324;52.040;11.528;2023-04-21T00:41:08;7.80;89.30
40622;DHT22;26324;52.040;11.528;2023-04-21T00:43:58;7.80;89.30
40622;DHT22;26324;52.040;11.528;2023-04-21T00:46:24;7.80;89.40
40622;DHT22;26324;52.040;11.528;2023-04-21T00:48:52;7.80;89.30
40622;DHT22;26324;52.040;11.528;2023-04-21T00:51:20;7.80;89.20
40622;DHT22;26324;52.040;11.528;2023-04-21T00:53:48;7.80;89.20
40622;DHT22;26324;52.040;11.528;2023-04-21T00:56:16;7.80;89.10
40622;DHT22;26324;52.040;11.528;2023-04-21T00:58:45;7.80;89.10
40622;DHT22;26324;52.040;11.528;2023-04-21T01:01:13;7.80;89.00
40622;DHT22;26324;52.040;11.528;2023-04-21T01:03:44;7.90;88.90
40622;DHT22;26324;52.040;11.528;2023-04-21T01:06:13;7.80;89.00
40622;DHT22;26324;52.040;11.528;2023-04-21T01:08:41;7.80;88.90
40622;DHT22;26324;52.040;11.528;2023-04-21T01:11:10;7.70;89.10
40622;DHT22;26324;52.040;11.528;2023-04-21T01:13:39;7.70;89.10
40622;DHT22;26324;52.040;11.528;2023-04-21T01:16:07;7.70;89.20
40622;DHT22;26324;52.040;11.528;2023-04-21T01:18:35;7.70;89.20
40622;DHT22;26324;52.040;11.528;2023-04-21T01:21:04;7.70;89.40
40622;DHT22;26324;52.040;11.528;2023-04-21T01:23:32;7.60;89.30
40622;DHT22;26324;52.040;11.528;2023-04-21T01:26:00;7.60;89.20
40622;DHT22;26324;52.040;11.528;2023-04-21T01:28:31;7.70;89.30
40622;DHT22;26324;52.040;11.528;2023-04-21T01:30:59;7.60;89.20
40622;DHT22;26324;52.040;11.528;2023-04-21T01:33:27;7.60;89.30
40622;DHT22;26324;52.040;11.528;2023-04-21T01:35:57;7.60;89.40
40622;DHT22;26324;52.040;11.528;2023-04-21T01:38:24;7.60;89.30
40622;DHT22;26324;52.040;11.528;2023-04-21T01:40:55;7.50;89.40
40622;DHT22;26324;52.040;11.528;2023-04-21T01:43:24;7.50;89.60
40622;DHT22;26324;52.040;11.528;2023-04-21T01:45:51;7.50;89.40
40622;DHT22;26324;52.040;11.528;2023-04-21T01:48:19;7.50;89.60
40622;DHT22;26324;52.040;11.528;2023-04-21T01:50:46;7.50;89.40
40622;DHT22;26324;52.040;11.528;2023-04-21T01:53:13;7.50;89.40
40622;DHT22;26324;52.040;11.528;2023-04-21T01:55:41;7.50;89.50
40622;DHT22;26324;52.040;11.528;2023-04-21T01:58:09;7.50;89.60
40622;DHT22;26324;52.040;11.528;2023-04-21T02:00:36;7.50;89.50
40622;DHT22;26324;52.040;11.528;2023-04-21T02:03:04;7.40;89.70
40622;DHT22;26324;52.040;11.528;2023-04-21T02:05:31;7.50;89.50
40622;DHT22;26324;52.040;11.528;2023-04-21T02:07:59;7.50;89.60
40622;DHT22;26324;52.040;11.528;2023-04-21T02:10:26;7.50;89.60
40622;DHT22;26324;52.040;11.528;2023-04-21T02:12:53;7.50;89.60
40622;DHT22;26324;52.040;11.528;2023-04-21T02:15:21;7.60;89.60
40622;DHT22;26324;52.040;11.528;2023-04-21T02:17:48;7.50;89.70
40622;DHT22;26324;52.040;11.528;2023-04-21T02:20:15;7.50;89.70
40622;DHT22;26324;52.040;11.528;2023-04-21T02:22:46;7.50;89.80
40622;DHT22;26324;52.040;11.528;2023-04-21T02:25:13;7.50;89.70
40622;DHT22;26324;52.040;11.528;2023-04-21T02:27:40;7.60;89.60
40622;DHT22;26324;52.040;11.528;2023-04-21T02:30:08;7.60;89.60
40622;DHT22;26324;52.040;11.528;2023-04-21T02:32:35;7.60;89.50
40622;DHT22;26324;52.040;11.528;2023-04-21T02:35:04;7.50;89.40
40622;DHT22;26324;52.040;11.528;2023-04-21T02:37:31;7.50;89.50
40622;DHT22;26324;52.040;11.528;2023-04-21T02:39:58;7.50;89.40
40622;DHT22;26324;52.040;11.528;2023-04-21T02:42:25;7.50;89.60
40622;DHT22;26324;52.040;11.528;2023-04-21T02:44:53;7.50;89.50
40622;DHT22;26324;52.040;11.528;2023-04-21T02:47:20;7.40;89.50
40622;DHT22;26324;52.040;11.528;2023-04-21T02:49:48;7.40;89.60
40622;DHT22;26324;52.040;11.528;2023-04-21T02:52:15;7.40;89.70
40622;DHT22;26324;52.040;11.528;2023-04-21T02:57:10;7.40;89.70
40622;DHT22;26324;52.040;11.528;2023-04-21T02:59:39;7.50;89.90
40622;DHT22;26324;52.040;11.528;2023-04-21T03:02:06;7.50;89.70
40622;DHT22;26324;52.040;11.528;2023-04-21T03:04:37;7.40;89.80
40622;DHT22;26324;52.040;11.528;2023-04-21T03:07:10;7.40;89.80
40622;DHT22;26324;52.040;11.528;2023-04-21T03:09:39;7.40;89.80
40622;DHT22;26324;52.040;11.528;2023-04-21T03:12:06;7.40;89.80
40622;DHT22;26324;52.040;11.528;2023-04-21T03:14:35;7.40;89.80
40622;DHT22;26324;52.040;11.528;2023-04-21T03:17:02;7.30;89.90
40622;DHT22;26324;52.040;11.528;2023-04-21T03:19:34;7.40;90.00
40622;DHT22;26324;52.040;11.528;2023-04-21T03:22:01;7.30;89.80
40622;DHT22;26324;52.040;11.528;2023-04-21T03:24:28;7.30;89.80
40622;DHT22;26324;52.040;11.528;2023-04-21T03:26:56;7.30;89.90
40622;DHT22;26324;52.040;11.528;2023-04-21T03:29:23;7.20;90.00
40622;DHT22;26324;52.040;11.528;2023-04-21T03:31:52;7.30;89.90
40622;DHT22;26324;52.040;11.528;2023-04-21T03:34:20;7.30;89.80
40622;DHT22;26324;52.040;11.528;2023-04-21T03:36:48;7.30;89.90
40622;DHT22;26324;52.040;11.528;2023-04-21T03:39:15;7.30;89.80
40622;DHT22;26324;52.040;11.528;2023-04-21T03:41:47;7.30;89.90
40622;DHT22;26324;52.040;11.528;2023-04-21T03:44:15;7.20;90.00
40622;DHT22;26324;52.040;11.528;2023-04-21T03:46:42;7.20;90.00
40622;DHT22;26324;52.040;11.528;2023-04-21T03:49:10;7.20;89.90
40622;DHT22;26324;52.040;11.528;2023-04-21T03:51:37;7.20;90.00
40622;DHT22;26324;52.040;11.528;2023-04-21T03:54:04;7.10;90.00
40622;DHT22;26324;52.040;11.528;2023-04-21T03:56:32;7.20;90.00
40622;DHT22;26324;52.040;11.528;2023-04-21T03:58:59;7.10;90.00
40622;DHT22;26324;52.040;11.528;2023-04-21T04:01:26;7.10;90.10
40622;DHT22;26324;52.040;11.528;2023-04-21T04:03:54;7.10;90.20
40622;DHT22;26324;52.040;11.528;2023-04-21T04:06:21;7.10;90.30
40622;DHT22;26324;52.040;11.528;2023-04-21T04:08:48;7.10;90.30
40622;DHT22;26324;52.040;11.528;2023-04-21T04:11:16;7.10;90.40
40622;DHT22;26324;52.040;11.528;2023-04-21T04:13:43;7.10;90.50
40622;DHT22;26324;52.040;11.528;2023-04-21T04:16:10;7.10;90.50
40622;DHT22;26324;52.040;11.528;2023-04-21T04:18:38;7.10;90.50
40622;DHT22;26324;52.040;11.528;2023-04-21T04:21:06;7.20;90.50
40622;DHT22;26324;52.040;11.528;2023-04-21T04:23:34;7.20;90.40
40622;DHT22;26324;52.040;11.528;2023-04-21T04:26:01;7.20;90.30
40622;DHT22;26324;52.040;11.528;2023-04-21T04:28:31;7.30;90.20
40622;DHT22;26324;52.040;11.528;2023-04-21T04:30:59;7.20;90.20
40622;DHT22;26324;52.040;11.528;2023-04-21T04:33:27;7.20;90.30
40622;DHT22;26324;52.040;11.528;2023-04-21T04:35:54;7.20;90.30
40622;DHT22;26324;52.040;11.528;2023-04-21T04:38:21;7.20;90.20
40622;DHT22;26324;52.040;11.528;2023-04-21T04:40:53;7.30;90.20
40622;DHT22;26324;52.040;11.528;2023-04-21T04:43:21;7.30;90.20
40622;DHT22;26324;52.040;11.528;2023-04-21T04:45:48;7.30;90.30
40622;DHT22;26324;52.040;11.528;2023-04-21T04:48:16;7.30;90.20
40622;DHT22;26324;52.040;11.528;2023-04-21T04:50:46;7.40;90.30
40622;DHT22;26324;52.040;11.528;2023-04-21T04:53:13;7.40;90.30
40622;DHT22;26324;52.040;11.528;2023-04-21T04:55:41;7.50;90.20
40622;DHT22;26324;52.040;11.528;2023-04-21T04:58:08;7.50;90.10
40622;DHT22;26324;52.040;11.528;2023-04-21T05:00:35;7.50;90.20
40622;DHT22;26324;52.040;11.528;2023-04-21T05:03:03;7.60;90.10
40622;DHT22;26324;52.040;11.528;2023-04-21T05:05:31;7.70;90.10
40622;DHT22;26324;52.040;11.528;2023-04-21T05:07:58;7.70;89.90
40622;DHT22;26324;52.040;11.528;2023-04-21T05:10:25;7.80;90.00
40622;DHT22;26324;52.040;11.528;2023-04-21T05:12:53;7.80;89.90
40622;DHT22;26324;52.040;11.528;2023-04-21T05:15:21;7.90;89.80
40622;DHT22;26324;52.040;11.528;2023-04-21T05:17:51;7.90;89.70
40622;DHT22;26324;52.040;11.528;2023-04-21T05:20:18;8.00;89.70
40622;DHT22;26324;52.040;11.528;2023-04-21T05:22:46;8.00;89.70
40622;DHT22;26324;52.040;11.528;2023-04-21T05:25:13;8.10;89.70
40622;DHT22;26324;52.040;11.528;2023-04-21T05:31:03;8.30;89.30
40622;DHT22;26324;52.040;11.528;2023-04-21T05:33:34;8.40;89.20
40622;DHT22;26324;52.040;11.528;2023-04-21T05:36:07;8.40;89.10
40622;DHT22;26324;52.040;11.528;2023-04-21T05:38:37;8.60;89.10
40622;DHT22;26324;52.040;11.528;2023-04-21T05:41:05;8.60;88.90
40622;DHT22;26324;52.040;11.528;2023-04-21T05:43:32;8.70;88.60
40622;DHT22;26324;52.040;11.528;2023-04-21T05:46:01;8.80;88.60
40622;DHT22;26324;52.040;11.528;2023-04-21T05:48:28;8.80;88.30
40622;DHT22;26324;52.040;11.528;2023-04-21T05:50:57;9.00;88.20
40622;DHT22;26324;52.040;11.528;2023-04-21T05:53:33;9.10;88.00
40622;DHT22;26324;52.040;11.528;2023-04-21T05:56:01;9.20;88.00
40622;DHT22;26324;52.040;11.528;2023-04-21T05:58:28;9.40;87.80
40622;DHT22;26324;52.040;11.528;2023-04-21T06:00:56;9.40;87.60
40622;DHT22;26324;52.040;11.528;2023-04-21T06:03:23;9.50;87.50
40622;DHT22;26324;52.040;11.528;2023-04-21T06:05:54;9.60;87.40
40622;DHT22;26324;52.040;11.528;2023-04-21T06:08:22;9.70;86.70
40622;DHT22;26324;52.040;11.528;2023-04-21T06:10:49;9.80;86.50
40622;DHT22;26324;52.040;11.528;2023-04-21T06:13:17;9.90;86.20
40622;DHT22;26324;52.040;11.528;2023-04-21T06:15:44;10.00;86.30
40622;DHT22;26324;52.040;11.528;2023-04-21T06:18:11;10.10;85.80
40622;DHT22;26324;52.040;11.528;2023-04-21T06:20:38;10.20;85.30
40622;DHT22;26324;52.040;11.528;2023-04-21T06:23:07;10.40;85.60
40622;DHT22;26324;52.040;11.528;2023-04-21T06:25:35;10.40;85.10
40622;DHT22;26324;52.040;11.528;2023-04-21T06:28:10;10.50;84.60
40622;DHT22;26324;52.040;11.528;2023-04-21T06:30:44;10.60;84.60
40622;DHT22;26324;52.040;11.528;2023-04-21T06:33:11;10.70;84.10
40622;DHT22;26324;52.040;11.528;2023-04-21T06:35:39;10.80;83.90
40622;DHT22;26324;52.040;11.528;2023-04-21T06:38:07;10.90;83.20
40622;DHT22;26324;52.040;11.528;2023-04-21T06:40:35;11.10;82.80
40622;DHT22;26324;52.040;11.528;2023-04-21T06:43:02;11.10;82.60
40622;DHT22;26324;52.040;11.528;2023-04-21T06:45:29;11.20;82.40
40622;DHT22;26324;52.040;11.528;2023-04-21T06:47:56;11.40;81.90
40622;DHT22;26324;52.040;11.528;2023-04-21T06:50:25;11.50;81.90
40622;DHT22;26324;52.040;11.528;2023-04-21T06:52:52;11.60;81.10
40622;DHT22;26324;52.040;11.528;2023-04-21T06:55:20;11.70;81.00
40622;DHT22;26324;52.040;11.528;2023-04-21T06:57:55;11.90;80.20
40622;DHT22;26324;52.040;11.528;2023-04-21T07:00:22;12.00;80.10
40622;DHT22;26324;52.040;11.528;2023-04-21T07:02:50;12.20;79.20
40622;DHT22;26324;52.040;11.528;2023-04-21T07:05:17;12.20;79.00
40622;DHT22;26324;52.040;11.528;2023-04-21T07:07:44;12.40;78.60
40622;DHT22;26324;52.040;11.528;2023-04-21T07:10:12;12.50;78.70
40622;DHT22;26324;52.040;11.528;2023-04-21T07:12:45;12.70;78.10
40622;DHT22;26324;52.040;11.528;2023-04-21T07:15:12;12.90;77.40
40622;DHT22;26324;52.040;11.528;2023-04-21T07:17:39;13.00;77.00
40622;DHT22;26324;52.040;11.528;2023-04-21T07:20:07;13.10;76.70
40622;DHT22;26324;52.040;11.528;2023-04-21T07:22:34;13.10;75.20
40622;DHT22;26324;52.040;11.528;2023-04-21T07:25:04;13.30;75.60
40622;DHT22;26324;52.040;11.528;2023-04-21T07:27:34;13.40;75.30
40622;DHT22;26324;52.040;11.528;2023-04-21T07:30:04;13.60;74.50
40622;DHT22;26324;52.040;11.528;2023-04-21T07:32:31;13.70;74.50
40622;DHT22;26324;52.040;11.528;2023-04-21T07:35:02;13.80;73.70
40622;DHT22;26324;52.040;11.528;2023-04-21T07:37:29;13.90;72.30
40622;DHT22;26324;52.040;11.528;2023-04-21T07:39:56;14.00;72.10
40622;DHT22;26324;52.040;11.528;2023-04-21T07:42:24;14.10;72.20
40622;DHT22;26324;52.040;11.528;2023-04-21T07:44:57;14.20;71.80
40622;DHT22;26324;52.040;11.528;2023-04-21T07:47:25;14.40;71.40
40622;DHT22;26324;52.040;11.528;2023-04-21T07:49:53;14.40;70.70
40622;DHT22;26324;52.040;11.528;2023-04-21T07:52:20;14.60;70.60
40622;DHT22;26324;52.040;11.528;2023-04-21T07:54:49;14.70;70.40
40622;DHT22;26324;52.040;11.528;2023-04-21T07:57:16;14.80;70.00
40622;DHT22;26324;52.040;11.528;2023-04-21T07:59:44;15.00;69.50
40622;DHT22;26324;52.040;11.528;2023-04-21T08:02:11;15.10;68.80
40622;DHT22;26324;52.040;11.528;2023-04-21T08:04:45;15.10;68.00
40622;DHT22;26324;52.040;11.528;2023-04-21T08:07:12;15.20;66.70
40622;DHT22;26324;52.040;11.528;2023-04-21T08:09:41;15.30;67.10
40622;DHT22;26324;52.040;11.528;2023-04-21T08:12:08;15.30;66.60
40622;DHT22;26324;52.040;11.528;2023-04-21T08:14:37;15.40;67.50
40622;DHT22;26324;52.040;11.528;2023-04-21T08:17:04;15.50;67.30
40622;DHT22;26324;52.040;11.528;2023-04-21T08:19:31;15.70;68.00
40622;DHT22;26324;52.040;11.528;2023-04-21T08:21:59;15.80;65.90
40622;DHT22;26324;52.040;11.528;2023-04-21T08:24:26;15.90;65.20
40622;DHT22;26324;52.040;11.528;2023-04-21T08:26:54;16.00;64.20
40622;DHT22;26324;52.040;11.528;2023-04-21T08:29:21;16.10;63.60
40622;DHT22;26324;52.040;11.528;2023-04-21T08:31:48;16.10;64.00
40622;DHT22;26324;52.040;11.528;2023-04-21T08:34:16;16.30;63.00
40622;DHT22;26324;52.040;11.528;2023-04-21T08:36:45;16.30;62.90
40622;DHT22;26324;52.040;11.528;2023-04-21T08:39:18;16.40;63.20
40622;DHT22;26324;52.040;11.528;2023-04-21T08:41:46;16.50;61.40
40622;DHT22;26324;52.040;11.528;2023-04-21T08:44:13;16.60;61.40
40622;DHT22;26324;52.040;11.528;2023-04-21T08:46:42;16.70;60.70
40622;DHT22;26324;52.040;11.528;2023-04-21T08:49:11;16.80;61.20
40622;DHT22;26324;52.040;11.528;2023-04-21T08:51:41;16.90;61.20
40622;DHT22;26324;52.040;11.528;2023-04-21T08:54:08;17.00;60.40
40622;DHT22;26324;52.040;11.528;2023-04-21T08:56:36;17.10;61.40
40622;DHT22;26324;52.040;11.528;2023-04-21T08:59:03;17.30;61.00
40622;DHT22;26324;52.040;11.528;2023-04-21T09:01:30;17.40;60.00
40622;DHT22;26324;52.040;11.528;2023-04-21T09:04:17;17.60;61.30
40622;DHT22;26324;52.040;11.528;2023-04-21T09:06:45;17.70;61.00
40622;DHT22;26324;52.040;11.528;2023-04-21T09:09:12;17.80;59.90
40622;DHT22;26324;52.040;11.528;2023-04-21T09:11:39;18.00;57.90
40622;DHT22;26324;52.040;11.528;2023-04-21T09:14:07;18.00;56.90
40622;DHT22;26324;52.040;11.528;2023-04-21T09:16:35;18.00;54.30
40622;DHT22;26324;52.040;11.528;2023-04-21T09:19:02;18.10;57.20
40622;DHT22;26324;52.040;11.528;2023-04-21T09:21:43;18.10;55.30
40622;DHT22;26324;52.040;11.528;2023-04-21T09:24:11;18.30;56.50
40622;DHT22;26324;52.040;11.528;2023-04-21T09:26:41;18.50;59.00
40622;DHT22;26324;52.040;11.528;2023-04-21T09:29:08;18.50;53.80
40622;DHT22;26324;52.040;11.528;2023-04-21T09:31:35;18.60;54.20
40622;DHT22;26324;52.040;11.528;2023-04-21T09:34:19;18.50;53.20
40622;DHT22;26324;52.040;11.528;2023-04-21T09:36:47;18.60;55.00
40622;DHT22;26324;52.040;11.528;2023-04-21T09:39:14;18.70;53.50
40622;DHT22;26324;52.040;11.528;2023-04-21T09:42:02;19.00;52.10
40622;DHT22;26324;52.040;11.528;2023-04-21T09:44:30;19.10;51.50
40622;DHT22;26324;52.040;11.528;2023-04-21T09:47:10;19.20;53.50
40622;DHT22;26324;52.040;11.528;2023-04-21T09:49:38;19.20;50.10
40622;DHT22;26324;52.040;11.528;2023-04-21T09:52:10;19.30;49.90
40622;DHT22;26324;52.040;11.528;2023-04-21T09:54:48;19.40;49.60
40622;DHT22;26324;52.040;11.528;2023-04-21T09:57:20;19.40;52.00
40622;DHT22;26324;52.040;11.528;2023-04-21T09:59:53;19.60;49.90
40622;DHT22;26324;52.040;11.528;2023-04-21T10:02:25;19.60;48.50
40622;DHT22;26324;52.040;11.528;2023-04-21T10:04:54;19.70;49.60
40622;DHT22;26324;52.040;11.528;2023-04-21T10:07:21;19.60;47.50
40622;DHT22;26324;52.040;11.528;2023-04-21T10:09:55;19.60;47.90
40622;DHT22;26324;52.040;11.528;2023-04-21T10:12:24;19.70;48.70
40622;DHT22;26324;52.040;11.528;2023-04-21T10:14:52;19.80;47.00
40622;DHT22;26324;52.040;11.528;2023-04-21T10:17:26;20.00;47.70
40622;DHT22;26324;52.040;11.528;2023-04-21T10:19:55;20.10;47.30
40622;DHT22;26324;52.040;11.528;2023-04-21T10:22:32;20.00;46.20
40622;DHT22;26324;52.040;11.528;2023-04-21T10:25:02;20.10;45.20
40622;DHT22;26324;52.040;11.528;2023-04-21T10:29:58;20.30;45.40
40622;DHT22;26324;52.040;11.528;2023-04-21T10:32:42;20.50;46.70
40622;DHT22;26324;52.040;11.528;2023-04-21T10:35:16;20.70;45.50
40622;DHT22;26324;52.040;11.528;2023-04-21T10:37:48;20.90;43.20
40622;DHT22;26324;52.040;11.528;2023-04-21T10:45:55;21.00;43.00
40622;DHT22;26324;52.040;11.528;2023-04-21T10:48:25;20.90;42.10
40622;DHT22;26324;52.040;11.528;2023-04-21T10:50:52;21.00;42.00
40622;DHT22;26324;52.040;11.528;2023-04-21T10:53:24;20.90;42.50
40622;DHT22;26324;52.040;11.528;2023-04-21T10:55:52;21.10;42.80
40622;DHT22;26324;52.040;11.528;2023-04-21T10:58:20;21.10;42.00
40622;DHT22;26324;52.040;11.528;2023-04-21T11:00:53;21.10;41.60
40622;DHT22;26324;52.040;11.528;2023-04-21T11:03:21;21.20;42.70
40622;DHT22;26324;52.040;11.528;2023-04-21T11:05:48;21.30;43.60
40622;DHT22;26324;52.040;11.528;2023-04-21T11:08:15;21.60;42.00
40622;DHT22;26324;52.040;11.528;2023-04-21T11:10:54;21.80;42.70
40622;DHT22;26324;52.040;11.528;2023-04-21T11:13:23;21.90;39.50
40622;DHT22;26324;52.040;11.528;2023-04-21T11:16:05;21.60;36.80
40622;DHT22;26324;52.040;11.528;2023-04-21T11:18:39;21.50;36.70
40622;DHT22;26324;52.040;11.528;2023-04-21T11:21:16;21.50;37.70
40622;DHT22;26324;52.040;11.528;2023-04-21T11:23:53;21.40;39.70
40622;DHT22;26324;52.040;11.528;2023-04-21T11:26:32;21.10;38.20
40622;DHT22;26324;52.040;11.528;2023-04-21T11:29:04;21.10;34.80
40622;DHT22;26324;52.040;11.528;2023-04-21T11:31:33;20.90;36.30
40622;DHT22;26324;52.040;11.528;2023-04-21T11:34:03;20.90;35.60
40622;DHT22;26324;52.040;11.528;2023-04-21T11:36:42;21.00;37.90
40622;DHT22;26324;52.040;11.528;2023-04-21T11:39:12;21.00;37.40
40622;DHT22;26324;52.040;11.528;2023-04-21T11:41:42;21.10;37.00
40622;DHT22;26324;52.040;11.528;2023-04-21T11:44:10;21.20;38.50
40622;DHT22;26324;52.040;11.528;2023-04-21T11:46:44;21.30;36.40
40622;DHT22;26324;52.040;11.528;2023-04-21T11:49:14;21.40;36.20
40622;DHT22;26324;52.040;11.528;2023-04-21T11:51:42;21.50;36.30
40622;DHT22;26324;52.040;11.528;2023-04-21T11:54:11;21.50;34.90
40622;DHT22;26324;52.040;11.528;2023-04-21T11:56:45;21.30;36.60
40622;DHT22;26324;52.040;11.528;2023-04-21T11:59:17;21.40;37.70
40622;DHT22;26324;52.040;11.528;2023-04-21T12:01:53;21.60;38.10
40622;DHT22;26324;52.040;11.528;2023-04-21T12:04:22;21.60;36.50
40622;DHT22;26324;52.040;11.528;2023-04-21T12:07:00;21.40;36.40
40622;DHT22;26324;52.040;11.528;2023-04-21T12:09:28;21.50;37.30
40622;DHT22;26324;52.040;11.528;2023-04-21T12:11:57;21.60;37.00
40622;DHT22;26324;52.040;11.528;2023-04-21T12:14:25;21.80;36.80
40622;DHT22;26324;52.040;11.528;2023-04-21T12:16:57;21.90;36.10
40622;DHT22;26324;52.040;11.528;2023-04-21T12:19:46;22.00;34.50
40622;DHT22;26324;52.040;11.528;2023-04-21T12:22:17;22.00;34.80
40622;DHT22;26324;52.040;11.528;2023-04-21T12:24:45;22.00;34.80
40622;DHT22;26324;52.040;11.528;2023-04-21T12:27:12;22.00;35.70
40622;DHT22;26324;52.040;11.528;2023-04-21T12:29:40;22.00;35.90
40622;DHT22;26324;52.040;11.528;2023-04-21T12:32:08;22.10;35.30
40622;DHT22;26324;52.040;11.528;2023-04-21T12:34:36;22.00;33.50
40622;DHT22;26324;52.040;11.528;2023-04-21T12:37:04;22.10;34.80
40622;DHT22;26324;52.040;11.528;2023-04-21T12:39:32;22.30;35.70
40622;DHT22;26324;52.040;11.528;2023-04-21T12:41:59;22.50;34.60
40622;DHT22;26324;52.040;11.528;2023-04-21T12:44:27;22.60;33.80
40622;DHT22;26324;52.040;11.528;2023-04-21T12:46:55;22.90;33.30
40622;DHT22;26324;52.040;11.528;2023-04-21T12:49:24;23.10;33.90
40622;DHT22;26324;52.040;11.528;2023-04-21T12:51:51;22.90;32.40
40622;DHT22;26324;52.040;11.528;2023-04-21T12:54:18;22.90;34.80
40622;DHT22;26324;52.040;11.528;2023-04-21T12:56:46;23.10;34.20
40622;DHT22;26324;52.040;11.528;2023-04-21T12:59:13;23.30;33.10
40622;DHT22;26324;52.040;11.528;2023-04-21T13:01:40;23.30;34.20
40622;DHT22;26324;52.040;11.528;2023-04-21T13:04:11;23.30;34.30
40622;DHT22;26324;52.040;11.528;2023-04-21T13:06:38;23.30;33.70
40622;DHT22;26324;52.040;11.528;2023-04-21T13:09:06;23.60;32.00
40622;DHT22;26324;52.040;11.528;2023-04-21T13:11:34;23.60;32.80
40622;DHT22;26324;52.040;11.528;2023-04-21T13:14:01;23.80;31.60
40622;DHT22;26324;52.040;11.528;2023-04-21T13:16:30;24.00;33.00
40622;DHT22;26324;52.040;11.528;2023-04-21T13:18:59;24.60;32.50
40622;DHT22;26324;52.040;11.528;2023-04-21T13:21:27;25.00;31.60
40622;DHT22;26324;52.040;11.528;2023-04-21T13:23:54;25.30;31.00
40622;DHT22;26324;52.040;11.528;2023-04-21T13:26:24;25.80;30.40
40622;DHT22;26324;52.040;11.528;2023-04-21T13:28:52;25.80;31.40
40622;DHT22;26324;52.040;11.528;2023-04-21T13:31:19;25.70;30.90
40622;DHT22;26324;52.040;11.528;2023-04-21T13:33:47;26.30;30.50
40622;DHT22;26324;52.040;11.528;2023-04-21T13:36:14;26.50;29.00
40622;DHT22;26324;52.040;11.528;2023-04-21T13:38:41;26.80;26.80
40622;DHT22;26324;52.040;11.528;2023-04-21T13:41:09;26.50;28.20
40622;DHT22;26324;52.040;11.528;2023-04-21T13:43:36;27.10;28.70
40622;DHT22;26324;52.040;11.528;2023-04-21T13:46:04;27.10;27.60
40622;DHT22;26324;52.040;11.528;2023-04-21T13:48:31;26.60;28.60
40622;DHT22;26324;52.040;11.528;2023-04-21T13:50:59;27.10;28.90
40622;DHT22;26324;52.040;11.528;2023-04-21T13:53:26;27.10;27.40
40622;DHT22;26324;52.040;11.528;2023-04-21T13:55:55;27.50;28.50
40622;DHT22;26324;52.040;11.528;2023-04-21T13:58:25;28.40;27.40
40622;DHT22;26324;52.040;11.528;2023-04-21T14:00:52;29.30;26.30
40622;DHT22;26324;52.040;11.528;2023-04-21T14:03:19;29.90;25.40
40622;DHT22;26324;52.040;11.528;2023-04-21T14:05:47;30.00;25.50
40622;DHT22;26324;52.040;11.528;2023-04-21T14:08:15;30.70;24.30
40622;DHT22;26324;52.040;11.528;2023-04-21T14:10:42;30.50;23.60
40622;DHT22;26324;52.040;11.528;2023-04-21T14:13:09;31.00;24.50
40622;DHT22;26324;52.040;11.528;2023-04-21T14:15:54;30.80;23.10
40622;DHT22;26324;52.040;11.528;2023-04-21T14:18:22;30.00;23.30
40622;DHT22;26324;52.040;11.528;2023-04-21T14:20:49;30.40;23.80
40622;DHT22;26324;52.040;11.528;2023-04-21T14:23:16;31.10;23.40
40622;DHT22;26324;52.040;11.528;2023-04-21T14:25:44;31.50;21.10
40622;DHT22;26324;52.040;11.528;2023-04-21T14:28:11;31.60;20.50
40622;DHT22;26324;52.040;11.528;2023-04-21T14:30:39;31.90;21.60
40622;DHT22;26324;52.040;11.528;2023-04-21T14:33:08;31.80;22.70
40622;DHT22;26324;52.040;11.528;2023-04-21T14:35:36;31.70;22.20
40622;DHT22;26324;52.040;11.528;2023-04-21T14:38:03;31.50;22.60
40622;DHT22;26324;52.040;11.528;2023-04-21T14:40:31;31.90;21.80
40622;DHT22;26324;52.040;11.528;2023-04-21T14:42:59;31.80;21.80
40622;DHT22;26324;52.040;11.528;2023-04-21T14:45:26;31.70;22.30
40622;DHT22;26324;52.040;11.528;2023-04-21T14:47:54;32.00;22.00
40622;DHT22;26324;52.040;11.528;2023-04-21T14:50:21;31.90;21.90
40622;DHT22;26324;52.040;11.528;2023-04-21T14:52:49;31.80;21.60
40622;DHT22;26324;52.040;11.528;2023-04-21T14:55:16;32.00;21.40
40622;DHT22;26324;52.040;11.528;2023-04-21T14:57:43;32.40;20.80
40622;DHT22;26324;52.040;11.528;2023-04-21T15:00:11;32.90;20.90
40622;DHT22;26324;52.040;11.528;2023-04-21T15:02:38;32.70;20.20
40622;DHT22;26324;52.040;11.528;2023-04-21T15:05:06;33.00;21.70
40622;DHT22;26324;52.040;11.528;2023-04-21T15:07:35;33.10;21.00
40622;DHT22;26324;52.040;11.528;2023-04-21T15:10:02;33.00;20.40
40622;DHT22;26324;52.040;11.528;2023-04-21T15:12:32;33.20;21.20
40622;DHT22;26324;52.040;11.528;2023-04-21T15:15:03;33.20;20.90
40622;DHT22;26324;52.040;11.528;2023-04-21T15:17:30;33.40;21.10
40622;DHT22;26324;52.040;11.528;2023-04-21T15:19:58;33.80;22.00
40622;DHT22;26324;52.040;11.528;2023-04-21T15:22:25;33.40;20.40
40622;DHT22;26324;52.040;11.528;2023-04-21T15:24:53;33.30;20.30
40622;DHT22;26324;52.040;11.528;2023-04-21T15:27:20;33.50;20.80
40622;DHT22;26324;52.040;11.528;2023-04-21T15:29:48;33.60;20.50
40622;DHT22;26324;52.040;11.528;2023-04-21T15:32:15;33.80;20.20
40622;DHT22;26324;52.040;11.528;2023-04-21T15:34:42;33.80;20.40
40622;DHT22;26324;52.040;11.528;2023-04-21T15:37:10;33.10;20.20
40622;DHT22;26324;52.040;11.528;2023-04-21T15:39:37;33.00;21.20
40622;DHT22;26324;52.040;11.528;2023-04-21T15:42:05;33.10;20.50
40622;DHT22;26324;52.040;11.528;2023-04-21T15:44:33;33.20;21.10
40622;DHT22;26324;52.040;11.528;2023-04-21T15:47:01;33.40;20.10